createdAt,value
2019-03-04T00:00:09.292Z,996.26
2019-03-04T00:01:09.309Z,996.26
2019-03-04T00:02:09.268Z,996.19
2019-03-04T00:03:09.256Z,996.16
2019-03-04T00:04:09.250Z,996.18
2019-03-04T00:05:09.236Z,996.16
2019-03-04T00:06:09.226Z,996.17
2019-03-04T00:07:09.228Z,996.14
2019-03-04T00:08:09.210Z,996.17
2019-03-04T00:09:09.186Z,996.20
2019-03-04T00:10:09.192Z,996.22
2019-03-04T00:11:09.168Z,996.16
2019-03-04T00:12:09.176Z,996.23
2019-03-04T00:13:09.142Z,996.17
2019-03-04T00:14:09.134Z,996.09
2019-03-04T00:15:09.123Z,996.07
2019-03-04T00:16:09.120Z,996.09
2019-03-04T00:17:09.176Z,996.05
2019-03-04T00:18:09.089Z,996.09
2019-03-04T00:19:09.079Z,996.05
2019-03-04T00:20:09.058Z,996.05
2019-03-04T00:21:09.059Z,996.00
2019-03-04T00:22:09.062Z,996.05
2019-03-04T00:23:09.044Z,996.05
2019-03-04T00:24:09.016Z,996.07
2019-03-04T00:25:09.018Z,996.00
2019-03-04T00:26:08.991Z,995.91
2019-03-04T00:27:09.028Z,995.81
2019-03-04T00:28:08.991Z,995.79
2019-03-04T00:29:08.958Z,995.84
2019-03-04T00:30:08.951Z,995.82
2019-03-04T00:31:08.961Z,995.74
2019-03-04T00:32:08.934Z,995.66
2019-03-04T00:33:08.944Z,995.61
2019-03-04T00:34:08.910Z,995.60
2019-03-04T00:35:08.899Z,995.61
2019-03-04T00:36:08.880Z,995.64
2019-03-04T00:37:08.872Z,995.71
2019-03-04T00:38:08.882Z,995.60
2019-03-04T00:39:08.848Z,995.62
2019-03-04T00:40:08.850Z,995.71
2019-03-04T00:41:08.824Z,995.68
2019-03-04T00:42:08.811Z,995.65
2019-03-04T00:43:08.841Z,995.60
2019-03-04T00:44:08.792Z,995.61
2019-03-04T00:45:08.778Z,995.60
2019-03-04T00:46:08.773Z,995.56
2019-03-04T00:47:08.760Z,995.52
2019-03-04T00:48:08.777Z,995.57
2019-03-04T00:49:08.735Z,995.61
2019-03-04T00:50:08.732Z,995.65
2019-03-04T00:51:08.714Z,995.63
2019-03-04T00:52:08.710Z,995.59
2019-03-04T00:53:08.690Z,995.51
2019-03-04T00:54:08.701Z,995.51
2019-03-04T00:55:08.672Z,995.46
2019-03-04T00:56:08.669Z,995.40
2019-03-04T00:57:08.683Z,995.46
2019-03-04T00:58:08.629Z,995.46
2019-03-04T00:59:08.646Z,995.43
2019-03-04T01:00:08.609Z,995.44
2019-03-04T01:01:08.601Z,995.42
2019-03-04T01:02:08.589Z,995.42
2019-03-04T01:03:08.638Z,995.39
2019-03-04T01:04:08.689Z,995.38
2019-03-04T01:05:08.584Z,995.38
2019-03-04T01:06:08.608Z,995.34
2019-03-04T01:07:08.545Z,995.28
2019-03-04T01:08:08.524Z,995.25
2019-03-04T01:09:08.534Z,995.22
2019-03-04T01:10:08.515Z,995.16
2019-03-04T01:11:08.486Z,995.10
2019-03-04T01:12:08.481Z,995.04
2019-03-04T01:13:08.473Z,995.09
2019-03-04T01:14:08.486Z,995.06
2019-03-04T01:15:08.460Z,995.00
2019-03-04T01:16:08.444Z,995.01
2019-03-04T01:17:08.421Z,994.94
2019-03-04T01:18:08.416Z,995.01
2019-03-04T01:19:08.400Z,994.96
2019-03-04T01:20:08.404Z,994.95
2019-03-04T01:21:08.376Z,994.97
2019-03-04T01:22:08.369Z,994.88
2019-03-04T01:23:08.354Z,994.89
2019-03-04T01:24:08.343Z,994.85
2019-03-04T01:25:08.368Z,994.81
2019-03-04T01:26:08.316Z,994.79
2019-03-04T01:27:08.302Z,994.84
2019-03-04T01:28:08.297Z,994.81
2019-03-04T01:29:08.286Z,994.82
2019-03-04T01:30:08.302Z,994.78
2019-03-04T01:31:08.264Z,994.76
2019-03-04T01:32:08.250Z,994.74
2019-03-04T01:33:08.237Z,994.68
2019-03-04T01:34:08.231Z,994.64
2019-03-04T01:35:08.257Z,994.60
2019-03-04T01:36:08.216Z,994.59
2019-03-04T01:37:08.204Z,994.59
2019-03-04T01:38:08.245Z,994.50
2019-03-04T01:39:08.180Z,994.42
2019-03-04T01:40:08.170Z,994.40
2019-03-04T01:41:08.177Z,994.30
2019-03-04T01:42:08.142Z,994.34
2019-03-04T01:43:08.123Z,994.22
2019-03-04T01:44:08.123Z,994.19
2019-03-04T01:45:08.112Z,994.15
2019-03-04T01:46:08.123Z,994.09
2019-03-04T01:47:08.088Z,994.06
2019-03-04T01:48:08.070Z,994.05
2019-03-04T01:49:08.061Z,994.00
2019-03-04T01:50:08.046Z,993.99
2019-03-04T01:51:08.053Z,993.99
2019-03-04T01:52:08.032Z,994.07
2019-03-04T01:53:08.025Z,994.07
2019-03-04T01:54:08.007Z,994.05
2019-03-04T01:55:07.997Z,994.08
2019-03-04T01:56:08.012Z,994.07
2019-03-04T01:57:07.966Z,994.12
2019-03-04T01:58:07.967Z,994.16
2019-03-04T01:59:07.947Z,994.17
2019-03-04T02:00:07.939Z,994.23
2019-03-04T02:01:07.943Z,994.28
2019-03-04T02:02:07.909Z,994.26
2019-03-04T02:03:07.899Z,994.33
2019-03-04T02:04:07.899Z,994.31
2019-03-04T02:05:07.879Z,994.40
2019-03-04T02:06:07.901Z,994.35
2019-03-04T02:07:07.854Z,994.36
2019-03-04T02:08:07.854Z,994.36
2019-03-04T02:09:07.831Z,994.32
2019-03-04T02:10:07.824Z,994.32
2019-03-04T02:11:07.811Z,994.30
2019-03-04T02:12:07.816Z,994.26
2019-03-04T02:13:07.790Z,994.23
2019-03-04T02:14:07.779Z,994.16
2019-03-04T02:15:07.770Z,994.14
2019-03-04T02:16:07.751Z,994.16
2019-03-04T02:17:07.771Z,994.16
2019-03-04T02:18:07.731Z,994.17
2019-03-04T02:19:07.723Z,994.18
2019-03-04T02:20:07.710Z,994.14
2019-03-04T02:21:07.702Z,994.13
2019-03-04T02:22:07.702Z,994.17
2019-03-04T02:23:07.670Z,994.16
2019-03-04T02:24:07.666Z,994.23
2019-03-04T02:25:07.653Z,994.19
2019-03-04T02:26:07.639Z,994.19
2019-03-04T02:27:07.680Z,994.26
2019-03-04T02:28:07.615Z,994.27
2019-03-04T02:29:07.604Z,994.34
2019-03-04T02:30:07.590Z,994.45
2019-03-04T02:31:07.585Z,994.42
2019-03-04T02:32:07.576Z,994.50
2019-03-04T02:33:07.606Z,994.52
2019-03-04T02:34:07.553Z,994.59
2019-03-04T02:35:07.550Z,994.60
2019-03-04T02:36:07.537Z,994.61
2019-03-04T02:37:07.514Z,994.56
2019-03-04T02:38:07.533Z,994.52
2019-03-04T02:39:07.505Z,994.52
2019-03-04T02:40:07.483Z,994.48
2019-03-04T02:41:07.473Z,994.45
2019-03-04T02:42:07.468Z,994.41
2019-03-04T02:43:07.477Z,994.45
2019-03-04T02:44:07.445Z,994.50
2019-03-04T02:45:07.429Z,994.48
2019-03-04T02:46:07.416Z,994.46
2019-03-04T02:47:07.404Z,994.39
2019-03-04T02:48:07.413Z,994.40
2019-03-04T02:49:07.381Z,994.35
2019-03-04T02:50:07.375Z,994.32
2019-03-04T02:51:07.361Z,994.27
2019-03-04T02:52:07.349Z,994.26
2019-03-04T02:53:07.369Z,994.27
2019-03-04T02:54:07.334Z,994.19
2019-03-04T02:55:07.316Z,994.16
2019-03-04T02:56:07.316Z,994.18
2019-03-04T02:57:07.296Z,994.15
2019-03-04T02:58:07.283Z,994.12
2019-03-04T02:59:07.337Z,994.05
2019-03-04T03:00:07.262Z,994.04
2019-03-04T03:01:07.255Z,993.96
2019-03-04T03:02:07.236Z,993.89
2019-03-04T03:03:07.221Z,993.85
2019-03-04T03:04:07.227Z,993.88
2019-03-04T03:05:07.204Z,993.83
2019-03-04T03:06:07.189Z,993.85
2019-03-04T03:07:07.183Z,993.84
2019-03-04T03:08:07.169Z,993.82
2019-03-04T03:09:07.181Z,993.71
2019-03-04T03:10:07.144Z,993.71
2019-03-04T03:11:07.144Z,993.65
2019-03-04T03:12:07.130Z,993.56
2019-03-04T03:13:07.115Z,993.54
2019-03-04T03:14:07.137Z,993.46
2019-03-04T03:15:07.090Z,993.41
2019-03-04T03:16:07.101Z,993.39
2019-03-04T03:17:07.066Z,993.42
2019-03-04T03:18:07.060Z,993.45
2019-03-04T03:19:07.043Z,993.37
2019-03-04T03:20:07.053Z,993.39
2019-03-04T03:21:07.015Z,993.36
2019-03-04T03:22:07.017Z,993.30
2019-03-04T03:23:06.998Z,993.29
2019-03-04T03:24:06.993Z,993.30
2019-03-04T03:25:07.001Z,993.31
2019-03-04T03:26:06.965Z,993.35
2019-03-04T03:27:06.957Z,993.32
2019-03-04T03:28:06.950Z,993.30
2019-03-04T03:29:06.936Z,993.26
2019-03-04T03:30:06.950Z,993.26
2019-03-04T03:31:06.907Z,993.25
2019-03-04T03:32:06.901Z,993.17
2019-03-04T03:33:06.885Z,993.15
2019-03-04T03:34:07.046Z,993.11
2019-03-04T03:35:08.371Z,993.14
2019-03-04T03:36:06.859Z,993.07
2019-03-04T03:37:06.838Z,993.02
2019-03-04T03:38:06.833Z,992.97
2019-03-04T03:39:06.818Z,992.82
2019-03-04T03:40:06.830Z,992.72
2019-03-04T03:41:06.814Z,992.79
2019-03-04T03:42:06.786Z,992.89
2019-03-04T03:43:06.770Z,992.87
2019-03-04T03:44:06.765Z,992.82
2019-03-04T03:45:06.752Z,992.77
2019-03-04T03:46:06.887Z,992.78
2019-03-04T03:47:06.741Z,992.78
2019-03-04T03:48:06.723Z,992.80
2019-03-04T03:49:06.701Z,992.88
2019-03-04T03:50:06.696Z,992.78
2019-03-04T03:51:06.699Z,992.72
2019-03-04T03:52:06.675Z,992.67
2019-03-04T03:53:06.668Z,992.62
2019-03-04T03:54:06.650Z,992.63
2019-03-04T03:55:06.637Z,992.70
2019-03-04T03:56:06.653Z,992.69
2019-03-04T03:57:06.619Z,992.71
2019-03-04T03:58:06.617Z,992.67
2019-03-04T03:59:06.590Z,992.70
2019-03-04T04:00:06.584Z,992.71
2019-03-04T04:01:06.586Z,992.72
2019-03-04T04:02:06.560Z,992.70
2019-03-04T04:03:06.549Z,992.70
2019-03-04T04:04:06.540Z,992.74
2019-03-04T04:05:06.523Z,992.66
2019-03-04T04:06:06.535Z,992.67
2019-03-04T04:07:06.508Z,992.76
2019-03-04T04:08:06.514Z,992.79
2019-03-04T04:09:06.480Z,992.77
2019-03-04T04:10:06.511Z,992.83
2019-03-04T04:11:06.493Z,992.79
2019-03-04T04:12:06.443Z,992.70
2019-03-04T04:13:06.430Z,992.70
2019-03-04T04:14:06.423Z,992.71
2019-03-04T04:15:06.420Z,992.67
2019-03-04T04:16:06.399Z,992.60
2019-03-04T04:17:06.405Z,992.58
2019-03-04T04:18:06.393Z,992.52
2019-03-04T04:19:06.369Z,992.47
2019-03-04T04:20:06.393Z,992.47
2019-03-04T04:21:06.346Z,992.37
2019-03-04T04:22:06.357Z,992.43
2019-03-04T04:23:06.319Z,992.40
2019-03-04T04:24:06.310Z,992.35
2019-03-04T04:25:06.313Z,992.33
2019-03-04T04:26:06.285Z,992.25
2019-03-04T04:27:06.300Z,992.20
2019-03-04T04:28:06.271Z,992.20
2019-03-04T04:29:06.255Z,992.21
2019-03-04T04:30:06.248Z,992.25
2019-03-04T04:31:06.230Z,992.18
2019-03-04T04:32:06.250Z,992.16
2019-03-04T04:33:06.221Z,992.08
2019-03-04T04:34:06.211Z,992.04
2019-03-04T04:35:06.188Z,992.06
2019-03-04T04:36:06.179Z,992.05
2019-03-04T04:37:06.164Z,992.03
2019-03-04T04:38:06.166Z,991.96
2019-03-04T04:39:06.140Z,991.97
2019-03-04T04:40:06.127Z,991.98
2019-03-04T04:41:06.118Z,991.99
2019-03-04T04:42:06.110Z,991.91
2019-03-04T04:43:06.121Z,991.90
2019-03-04T04:44:06.086Z,991.84
2019-03-04T04:45:06.072Z,991.77
2019-03-04T04:46:06.060Z,991.76
2019-03-04T04:47:06.050Z,991.76
2019-03-04T04:48:06.061Z,991.72
2019-03-04T04:49:06.028Z,991.65
2019-03-04T04:50:06.023Z,991.66
2019-03-04T04:51:06.012Z,991.69
2019-03-04T04:52:05.995Z,991.63
2019-03-04T04:53:06.010Z,991.63
2019-03-04T04:54:05.964Z,991.59
2019-03-04T04:55:05.966Z,991.57
2019-03-04T04:56:05.950Z,991.57
2019-03-04T04:57:05.938Z,991.55
2019-03-04T04:58:05.945Z,991.60
2019-03-04T04:59:05.923Z,991.56
2019-03-04T05:00:05.900Z,991.53
2019-03-04T05:01:05.896Z,991.51
2019-03-04T05:02:05.880Z,991.49
2019-03-04T05:03:05.864Z,991.40
2019-03-04T05:04:05.897Z,991.45
2019-03-04T05:05:05.854Z,991.53
2019-03-04T05:06:05.844Z,991.55
2019-03-04T05:07:05.837Z,991.53
2019-03-04T05:08:05.813Z,991.46
2019-03-04T05:09:05.824Z,991.45
2019-03-04T05:10:05.791Z,991.47
2019-03-04T05:11:05.777Z,991.48
2019-03-04T05:12:05.779Z,991.50
2019-03-04T05:13:05.757Z,991.49
2019-03-04T05:14:05.784Z,991.44
2019-03-04T05:15:05.728Z,991.48
2019-03-04T05:16:05.733Z,991.47
2019-03-04T05:17:05.708Z,991.50
2019-03-04T05:18:05.702Z,991.48
2019-03-04T05:19:05.700Z,991.45
2019-03-04T05:20:05.714Z,991.45
2019-03-04T05:21:05.665Z,991.41
2019-03-04T05:22:05.678Z,991.42
2019-03-04T05:23:05.646Z,991.38
2019-03-04T05:24:05.645Z,991.34
2019-03-04T05:25:05.645Z,991.36
2019-03-04T05:26:05.606Z,991.31
2019-03-04T05:27:05.599Z,991.34
2019-03-04T05:28:05.614Z,991.29
2019-03-04T05:29:05.579Z,991.20
2019-03-04T05:30:05.582Z,991.36
2019-03-04T05:31:05.550Z,991.23
2019-03-04T05:32:05.542Z,991.24
2019-03-04T05:33:05.529Z,991.27
2019-03-04T05:34:05.517Z,991.27
2019-03-04T05:35:05.525Z,991.23
2019-03-04T05:36:05.505Z,991.24
2019-03-04T05:37:05.484Z,991.23
2019-03-04T05:38:05.471Z,991.26
2019-03-04T05:39:05.459Z,991.19
2019-03-04T05:40:05.983Z,991.07
2019-03-04T05:41:05.452Z,991.04
2019-03-04T05:42:05.427Z,991.09
2019-03-04T05:43:05.418Z,990.99
2019-03-04T05:44:05.410Z,990.98
2019-03-04T05:45:05.402Z,991.02
2019-03-04T05:46:05.402Z,991.06
2019-03-04T05:47:05.373Z,991.05
2019-03-04T05:48:07.573Z,991.07
2019-03-04T05:49:05.346Z,991.09
2019-03-04T05:50:05.336Z,991.04
2019-03-04T05:51:05.349Z,991.01
2019-03-04T05:52:05.322Z,991.03
2019-03-04T05:53:05.309Z,991.00
2019-03-04T05:54:05.300Z,991.01
2019-03-04T05:55:05.285Z,990.97
2019-03-04T05:56:05.300Z,990.86
2019-03-04T05:57:05.257Z,990.88
2019-03-04T05:58:05.248Z,990.91
2019-03-04T05:59:05.235Z,990.90
2019-03-04T06:00:05.230Z,990.92
2019-03-04T06:01:05.244Z,990.84
2019-03-04T06:02:05.208Z,990.84
2019-03-04T06:03:05.199Z,990.78
2019-03-04T06:04:05.179Z,990.76
2019-03-04T06:05:05.173Z,990.83
2019-03-04T06:06:05.160Z,990.83
2019-03-04T06:07:05.162Z,990.83
2019-03-04T06:08:05.147Z,990.88
2019-03-04T06:09:05.133Z,990.86
2019-03-04T06:10:05.118Z,990.79
2019-03-04T06:11:05.103Z,990.71
2019-03-04T06:12:05.107Z,990.74
2019-03-04T06:13:05.078Z,990.77
2019-03-04T06:14:05.065Z,990.72
2019-03-04T06:15:05.064Z,990.68
2019-03-04T06:16:05.055Z,990.69
2019-03-04T06:17:05.050Z,990.74
2019-03-04T06:18:05.029Z,990.75
2019-03-04T06:19:05.011Z,990.74
2019-03-04T06:20:05.000Z,990.67
2019-03-04T06:21:04.988Z,990.66
2019-03-04T06:22:04.994Z,990.62
2019-03-04T06:23:04.963Z,990.59
2019-03-04T06:24:04.958Z,990.54
2019-03-04T06:25:07.450Z,990.48
2019-03-04T06:26:04.943Z,990.46
2019-03-04T06:27:04.942Z,990.42
2019-03-04T06:28:04.915Z,990.38
2019-03-04T06:29:04.899Z,990.27
2019-03-04T06:30:04.887Z,990.27
2019-03-04T06:31:04.876Z,990.31
2019-03-04T06:32:04.890Z,990.23
2019-03-04T06:33:04.861Z,990.31
2019-03-04T06:34:04.844Z,990.25
2019-03-04T06:35:04.829Z,990.27
2019-03-04T06:36:04.830Z,990.31
2019-03-04T06:37:04.853Z,990.32
2019-03-04T06:38:04.801Z,990.31
2019-03-04T06:39:04.783Z,990.35
2019-03-04T06:40:04.779Z,990.37
2019-03-04T06:41:04.765Z,990.33
2019-03-04T06:42:04.756Z,990.29
2019-03-04T06:43:04.755Z,990.25
2019-03-04T06:44:04.732Z,990.19
2019-03-04T06:45:04.718Z,990.21
2019-03-04T06:46:04.707Z,990.20
2019-03-04T06:47:04.700Z,990.19
2019-03-04T06:48:04.716Z,990.14
2019-03-04T06:49:04.677Z,990.11
2019-03-04T06:50:04.666Z,990.13
2019-03-04T06:51:04.649Z,990.14
2019-03-04T06:52:04.640Z,990.08
2019-03-04T06:53:04.814Z,990.09
2019-03-04T06:54:04.620Z,990.11
2019-03-04T06:55:04.609Z,990.09
2019-03-04T06:56:04.602Z,990.09
2019-03-04T06:57:04.586Z,990.09
2019-03-04T06:58:04.578Z,990.10
2019-03-04T06:59:04.578Z,990.07
2019-03-04T07:00:04.549Z,990.04
2019-03-04T07:01:04.539Z,989.96
2019-03-04T07:02:04.525Z,989.98
2019-03-04T07:03:04.523Z,989.92
2019-03-04T07:04:04.513Z,989.85
2019-03-04T07:05:04.497Z,989.87
2019-03-04T07:06:04.481Z,989.76
2019-03-04T07:07:04.477Z,989.74
2019-03-04T07:08:04.464Z,989.71
2019-03-04T07:09:04.487Z,989.72
2019-03-04T07:10:04.435Z,989.66
2019-03-04T07:11:04.423Z,989.65
2019-03-04T07:12:04.417Z,989.67
2019-03-04T07:13:04.405Z,989.61
2019-03-04T07:14:04.391Z,989.54
2019-03-04T07:15:04.435Z,989.63
2019-03-04T07:16:04.405Z,989.52
2019-03-04T07:17:04.446Z,989.52
2019-03-04T07:18:04.346Z,989.50
2019-03-04T07:19:04.391Z,989.42
2019-03-04T07:20:04.409Z,989.45
2019-03-04T07:21:04.312Z,989.40
2019-03-04T07:22:04.307Z,989.35
2019-03-04T07:23:04.287Z,989.37
2019-03-04T07:24:04.294Z,989.47
2019-03-04T07:25:04.293Z,989.51
2019-03-04T07:26:04.255Z,989.39
2019-03-04T07:27:04.249Z,989.44
2019-03-04T07:28:04.253Z,989.42
2019-03-04T07:29:04.229Z,989.43
2019-03-04T07:30:04.233Z,989.39
2019-03-04T07:31:04.197Z,989.43
2019-03-04T07:32:04.189Z,989.41
2019-03-04T07:33:04.179Z,989.37
2019-03-04T07:34:04.169Z,989.32
2019-03-04T07:35:04.179Z,989.28
2019-03-04T07:36:04.149Z,989.22
2019-03-04T07:37:04.135Z,989.23
2019-03-04T07:38:04.122Z,989.18
2019-03-04T07:39:04.109Z,989.13
2019-03-04T07:40:04.115Z,989.20
2019-03-04T07:41:04.091Z,989.11
2019-03-04T07:42:04.092Z,989.03
2019-03-04T07:43:04.061Z,988.99
2019-03-04T07:44:04.050Z,988.89
2019-03-04T07:45:04.059Z,988.84
2019-03-04T07:46:04.026Z,988.82
2019-03-04T07:47:04.023Z,988.82
2019-03-04T07:48:04.007Z,988.81
2019-03-04T07:49:03.999Z,988.74
2019-03-04T07:50:04.002Z,988.73
2019-03-04T07:51:04.002Z,988.74
2019-03-04T07:52:03.962Z,988.70
2019-03-04T07:53:03.955Z,988.73
2019-03-04T07:54:03.944Z,988.64
2019-03-04T07:55:03.934Z,988.63
2019-03-04T07:56:03.970Z,988.60
2019-03-04T07:57:03.903Z,988.52
2019-03-04T07:58:03.917Z,988.53
2019-03-04T07:59:03.882Z,988.54
2019-03-04T08:00:03.943Z,988.44
2019-03-04T08:01:03.883Z,988.43
2019-03-04T08:02:03.850Z,988.37
2019-03-04T08:03:03.837Z,988.34
2019-03-04T08:04:03.824Z,988.35
2019-03-04T08:05:03.813Z,988.33
2019-03-04T08:06:03.855Z,988.25
2019-03-04T08:07:03.790Z,988.23
2019-03-04T08:08:03.791Z,988.17
2019-03-04T08:09:03.769Z,988.16
2019-03-04T08:10:03.769Z,988.14
2019-03-04T08:11:03.781Z,988.11
2019-03-04T08:12:03.733Z,988.07
2019-03-04T08:13:03.722Z,988.20
2019-03-04T08:14:03.716Z,988.35
2019-03-04T08:15:03.714Z,988.37
2019-03-04T08:16:03.704Z,988.36
2019-03-04T08:17:03.707Z,988.32
2019-03-04T08:18:03.671Z,988.15
2019-03-04T08:19:03.658Z,988.12
2019-03-04T08:20:03.647Z,988.07
2019-03-04T08:21:03.639Z,988.11
2019-03-04T08:22:03.646Z,988.18
2019-03-04T08:23:03.613Z,988.33
2019-03-04T08:24:03.611Z,988.24
2019-03-04T08:25:03.594Z,988.15
2019-03-04T08:26:03.582Z,988.06
2019-03-04T08:27:03.588Z,987.89
2019-03-04T08:28:03.556Z,987.76
2019-03-04T08:29:03.551Z,987.60
2019-03-04T08:30:03.536Z,987.50
2019-03-04T08:31:03.537Z,987.50
2019-03-04T08:32:03.547Z,987.53
2019-03-04T08:33:03.515Z,987.55
2019-03-04T08:34:03.494Z,987.47
2019-03-04T08:35:03.480Z,987.46
2019-03-04T08:36:03.465Z,987.29
2019-03-04T08:37:03.480Z,987.13
2019-03-04T08:38:03.448Z,987.06
2019-03-04T08:39:03.443Z,987.06
2019-03-04T08:40:03.429Z,987.09
2019-03-04T08:41:03.412Z,987.09
2019-03-04T08:42:03.427Z,987.07
2019-03-04T08:43:03.399Z,987.26
2019-03-04T08:44:03.386Z,987.19
2019-03-04T08:45:03.363Z,987.38
2019-03-04T08:46:03.357Z,987.39
2019-03-04T08:47:03.346Z,987.24
2019-03-04T08:48:03.349Z,987.08
2019-03-04T08:49:03.321Z,987.23
2019-03-04T08:50:03.312Z,987.26
2019-03-04T08:51:03.302Z,987.26
2019-03-04T08:52:03.292Z,987.19
2019-03-04T08:53:03.294Z,987.04
2019-03-04T08:54:03.257Z,986.87
2019-03-04T08:55:03.268Z,986.89
2019-03-04T08:56:03.305Z,986.68
2019-03-04T08:57:04.071Z,986.53
2019-03-04T08:58:03.230Z,986.51
2019-03-04T08:59:03.211Z,986.59
2019-03-04T09:00:03.193Z,986.53
2019-03-04T09:01:03.189Z,986.66
2019-03-04T09:02:03.179Z,986.79
2019-03-04T09:03:03.178Z,986.90
2019-03-04T09:04:03.150Z,987.00
2019-03-04T09:05:03.149Z,986.99
2019-03-04T09:06:03.129Z,986.90
2019-03-04T09:07:04.042Z,986.81
2019-03-04T09:08:03.125Z,986.83
2019-03-04T09:09:03.093Z,986.81
2019-03-04T09:10:03.089Z,986.70
2019-03-04T09:11:03.090Z,986.64
2019-03-04T09:12:03.064Z,986.57
2019-03-04T09:13:03.070Z,986.58
2019-03-04T09:14:03.054Z,986.54
2019-03-04T09:15:03.023Z,986.54
2019-03-04T09:16:03.033Z,986.54
2019-03-04T09:17:03.002Z,986.48
2019-03-04T09:18:03.018Z,986.55
2019-03-04T09:19:03.007Z,986.57
2019-03-04T09:20:02.976Z,986.53
2019-03-04T09:21:02.965Z,986.49
2019-03-04T09:22:02.945Z,986.46
2019-03-04T09:23:02.955Z,986.46
2019-03-04T09:24:02.921Z,986.40
2019-03-04T09:25:02.914Z,986.36
2019-03-04T09:26:02.906Z,986.35
2019-03-04T09:27:02.892Z,986.28
2019-03-04T09:28:02.902Z,986.22
2019-03-04T09:29:02.880Z,986.20
2019-03-04T09:30:02.860Z,986.16
2019-03-04T09:31:02.848Z,986.10
2019-03-04T09:32:02.831Z,986.19
2019-03-04T09:33:02.864Z,986.27
2019-03-04T09:34:02.815Z,986.23
2019-03-04T09:35:02.833Z,986.20
2019-03-04T09:36:02.786Z,986.23
2019-03-04T09:37:02.786Z,986.30
2019-03-04T09:38:02.767Z,986.33
2019-03-04T09:39:02.768Z,986.38
2019-03-04T09:40:02.741Z,986.16
2019-03-04T09:41:02.731Z,986.18
2019-03-04T09:42:02.718Z,986.10
2019-03-04T09:43:02.710Z,986.13
2019-03-04T09:44:02.713Z,986.17
2019-03-04T09:45:02.691Z,986.10
2019-03-04T09:46:02.678Z,986.09
2019-03-04T09:47:02.665Z,986.16
2019-03-04T09:48:02.654Z,986.30
2019-03-04T09:49:02.665Z,986.41
2019-03-04T09:50:02.629Z,986.42
2019-03-04T09:51:02.619Z,986.36
2019-03-04T09:52:02.609Z,986.27
2019-03-04T09:53:02.605Z,986.18
2019-03-04T09:54:02.612Z,986.06
2019-03-04T09:55:02.573Z,986.06
2019-03-04T09:56:02.583Z,986.04
2019-03-04T09:57:02.547Z,986.08
2019-03-04T09:58:02.548Z,986.05
2019-03-04T09:59:02.546Z,986.10
2019-03-04T10:00:02.515Z,986.16
2019-03-04T10:01:02.505Z,986.19
2019-03-04T10:02:02.501Z,986.18
2019-03-04T10:03:02.480Z,986.10
2019-03-04T10:04:02.497Z,986.03
2019-03-04T10:05:02.457Z,986.08
2019-03-04T10:06:02.452Z,986.11
2019-03-04T10:07:02.435Z,986.02
2019-03-04T10:08:02.433Z,986.04
2019-03-04T10:09:02.448Z,986.02
2019-03-04T10:10:02.413Z,985.99
2019-03-04T10:11:02.393Z,985.92
2019-03-04T10:12:02.463Z,985.92
2019-03-04T10:13:02.369Z,985.93
2019-03-04T10:14:02.360Z,985.86
2019-03-04T10:15:08.470Z,985.82
2019-03-04T10:16:03.347Z,985.68
2019-03-04T10:17:02.325Z,985.64
2019-03-04T10:18:02.318Z,985.57
2019-03-04T10:19:02.303Z,985.52
2019-03-04T10:20:02.305Z,985.41
2019-03-04T10:21:02.288Z,985.47
2019-03-04T10:22:02.268Z,985.51
2019-03-04T10:23:02.262Z,985.47
2019-03-04T10:24:02.253Z,985.43
2019-03-04T10:25:02.252Z,985.37
2019-03-04T10:26:02.225Z,985.38
2019-03-04T10:27:02.216Z,985.34
2019-03-04T10:28:02.199Z,985.32
2019-03-04T10:29:02.329Z,985.24
2019-03-04T10:30:02.200Z,985.17
2019-03-04T10:31:02.166Z,985.19
2019-03-04T10:32:02.158Z,985.05
2019-03-04T10:33:02.167Z,985.04
2019-03-04T10:34:02.131Z,985.02
2019-03-04T10:35:02.124Z,984.99
2019-03-04T10:36:02.136Z,985.10
2019-03-04T10:37:02.096Z,985.24
2019-03-04T10:38:02.095Z,985.08
2019-03-04T10:39:02.081Z,985.18
2019-03-04T10:40:02.067Z,985.15
2019-03-04T10:41:02.071Z,985.08
2019-03-04T10:42:02.046Z,985.25
2019-03-04T10:43:02.031Z,985.06
2019-03-04T10:44:02.035Z,984.99
2019-03-04T10:45:02.010Z,985.02
2019-03-04T10:46:01.995Z,985.18
2019-03-04T10:47:01.981Z,985.35
2019-03-04T10:48:01.974Z,985.13
2019-03-04T10:49:01.977Z,984.94
2019-03-04T10:50:01.962Z,984.83
2019-03-04T10:51:01.943Z,984.94
2019-03-04T10:52:01.949Z,985.01
2019-03-04T10:53:01.919Z,984.98
2019-03-04T10:54:01.915Z,985.13
2019-03-04T10:55:01.895Z,985.06
2019-03-04T10:56:01.886Z,984.87
2019-03-04T10:57:01.890Z,984.82
2019-03-04T10:58:01.862Z,984.90
2019-03-04T10:59:01.857Z,984.87
2019-03-04T11:00:01.862Z,984.79
2019-03-04T11:01:01.836Z,984.88
2019-03-04T11:02:01.819Z,984.83
2019-03-04T11:03:01.816Z,984.82
2019-03-04T11:04:01.792Z,984.79
2019-03-04T11:05:01.781Z,984.99
2019-03-04T11:06:01.775Z,984.92
2019-03-04T11:07:01.761Z,985.02
2019-03-04T11:08:01.770Z,984.95
2019-03-04T11:09:01.739Z,984.56
2019-03-04T11:10:01.727Z,985.00
2019-03-04T11:11:01.713Z,984.69
2019-03-04T11:12:01.717Z,984.86
2019-03-04T11:13:01.802Z,984.96
2019-03-04T11:14:01.676Z,984.88
2019-03-04T11:15:01.664Z,984.90
2019-03-04T11:16:03.040Z,985.02
2019-03-04T11:17:01.646Z,984.87
2019-03-04T11:18:01.639Z,984.73
2019-03-04T11:19:01.643Z,985.10
2019-03-04T11:20:01.613Z,985.04
2019-03-04T11:21:01.599Z,985.09
2019-03-04T11:22:01.597Z,985.12
2019-03-04T11:23:01.580Z,984.92
2019-03-04T11:24:01.586Z,984.96
2019-03-04T11:25:01.557Z,985.09
2019-03-04T11:26:01.544Z,984.96
2019-03-04T11:27:01.535Z,985.13
2019-03-04T11:28:01.516Z,984.81
2019-03-04T11:29:01.541Z,984.86
2019-03-04T11:30:01.510Z,984.90
2019-03-04T11:31:01.512Z,984.89
2019-03-04T11:32:01.473Z,985.05
2019-03-04T11:33:01.464Z,985.14
2019-03-04T11:34:01.479Z,985.93
2019-03-04T11:35:01.446Z,986.10
2019-03-04T11:36:01.430Z,986.67
2019-03-04T11:37:01.437Z,986.36
2019-03-04T11:38:01.411Z,986.36
2019-03-04T11:39:01.402Z,986.55
2019-03-04T11:40:01.380Z,986.42
2019-03-04T11:41:01.381Z,986.47
2019-03-04T11:42:01.393Z,986.41
2019-03-04T11:43:01.347Z,986.61
2019-03-04T11:44:01.341Z,986.58
2019-03-04T11:45:01.348Z,986.73
2019-03-04T11:46:01.317Z,986.70
2019-03-04T11:47:01.327Z,986.80
2019-03-04T11:48:01.288Z,986.74
2019-03-04T11:49:01.283Z,986.88
2019-03-04T11:50:01.306Z,986.85
2019-03-04T11:51:01.257Z,986.83
2019-03-04T11:52:01.261Z,986.96
2019-03-04T11:53:01.238Z,987.11
2019-03-04T11:54:01.231Z,986.99
2019-03-04T11:55:01.215Z,986.89
2019-03-04T11:56:01.231Z,986.75
2019-03-04T11:57:01.201Z,986.73
2019-03-04T11:58:01.191Z,986.83
2019-03-04T11:59:01.174Z,986.91
2019-03-04T12:00:01.162Z,986.88
2019-03-04T12:01:01.169Z,986.54
2019-03-04T12:02:01.146Z,986.42
2019-03-04T12:03:01.125Z,986.37
2019-03-04T12:04:01.119Z,986.44
2019-03-04T12:05:01.109Z,986.46
2019-03-04T12:06:01.112Z,986.52
2019-03-04T12:07:01.147Z,986.47
2019-03-04T12:08:01.068Z,986.47
2019-03-04T12:09:01.061Z,986.29
2019-03-04T12:10:01.050Z,986.27
2019-03-04T12:11:01.050Z,986.21
2019-03-04T12:12:01.023Z,986.13
2019-03-04T12:13:01.010Z,986.08
2019-03-04T12:14:03.194Z,986.03
2019-03-04T12:15:00.989Z,985.95
2019-03-04T12:16:01.010Z,985.97
2019-03-04T12:17:00.966Z,985.96
2019-03-04T12:18:00.959Z,985.95
2019-03-04T12:19:00.958Z,985.99
2019-03-04T12:20:00.937Z,985.97
2019-03-04T12:21:00.943Z,986.05
2019-03-04T12:22:00.911Z,986.12
2019-03-04T12:23:00.896Z,986.20
2019-03-04T12:24:00.888Z,986.28
2019-03-04T12:25:00.888Z,986.20
2019-03-04T12:26:00.880Z,986.21
2019-03-04T12:27:00.858Z,986.12
2019-03-04T12:28:00.848Z,985.96